메인 페이지
METAR-TAF:

METAR-TAF

공항 :

Mankato, 미네소타, 미국

위도: 44-13N, 경도: 093-55W, 고도: 311m

현재 날씨관측

예보는 15분 전, 13:56시(UTC)에 발표되었습니다.
남서6kt
온도 13°C
습도 100%
기압 1004 hPa
시정: 4.8km
고도 300ft 상공 흐림
박무

METAR: KMKT 071356Z AUTO 22006KT 3SM BR OVC003 13/13 A2966 RMK AO2 CIG 003V007 SLP048 T01330133

시각: 09:11 (14:11 UTC)

예보

예보는 56분 전, 13:15시(UTC)에 발표되었습니다.
예보 대상 시간: 07일 13시부터 08일 12시까지 (UTC)
남남서9kt
시정: 2.4km
고도 300ft 상공 흐림
박무
07일 1400시부터 (UTC)
서남서7kt
시정: 1.6km
고도 700ft 상공 흐림
박무
07일 1630시부터 (UTC)
북서11kt, 순간 최대 풍속 17kt
시정: 10km
고도 4500ft 상공 구름 많음
08일 0000시부터 (UTC)
여러 방향의 바람 3kt
시정: 10km
맑음

TAF: KMKT 071315Z 0713/0812 20009KT 1 1/2SM BR OVC003 FM071400 25007KT 6SM BR OVC007 FM071630 32011G17KT P6SM BKN045 FM080000 VRB03KT P6SM SKC

4,000개 이상의 공항 관측 자료 및 예보 (METAR 및 TAF 보고).

지도상에서 검색 가능한 기상관측소가 노란 점과 빨간 점으로 표시되어 있습니다.

기상관측소 명을 보려면 표시 위로 마우스를 이동하세요.

날씨 관측과 예보를 보려면 클릭하세요.

지도 변경 : 확대하려면 엑스 표시가 있는 녹색 버튼, 축소하려면 빼기 표시가 있는 녹색 버튼, 다음 페이지의 지도를 보려면 녹색 화살표를 클릭하세요.


METAR-TAF: